<?xml version='1.0' encoding='utf-8'?>
<gpx xmlns="http://www.topografix.com/GPX/1/1" xmlns:om="http://www.oruxmaps.com/oruxmapsextensions/1/0" xmlns:xsi="http://www.w3.org/2001/XMLSchema-instance" creator="OruxMaps v.6.0.7 Donate" version="1.1" xsi:schemaLocation="http://www.topografix.com/GPX/1/1 http://www.topografix.com/GPX/1/1/gpx.xsd">
<metadata>
<name>2015-04-24 17:49</name>
<desc />
<link href="http://www.oruxmaps.com">
<text>OruxMaps</text>
</link>
<time>2015-04-24T14:49:15Z</time><bounds maxlat="35.1108582" maxlon="32.5078915" minlat="34.7772282" minlon="32.3628718" />
</metadata>
<trk>
<name>2015-04-24 17:49</name>
<desc>&lt;h1&gt;OruxMaps&lt;/h1&gt;&lt;br /&gt;&lt;hr align="center" width="480" style="height: 2px; width: 517px"/&gt;&lt;h2&gt;Name: 2015-04-24 17:49&lt;/h2&gt;&lt;br /&gt;&lt;p&gt;Start time: 04/24/2015 17:49&lt;/p&gt;&lt;p&gt;Finish time: 04/24/2015 22:14&lt;/p&gt;&lt;p&gt;Distance: 53.3km (04:25)&lt;/p&gt;&lt;p&gt;Moving time: 03:19&lt;/p&gt;&lt;p&gt;Average speed: 12.1km/h&lt;/p&gt;&lt;p&gt;Avg. Speed Mov.: 16km/h&lt;/p&gt;&lt;p&gt;Max. Speed: 57.3km/h&lt;/p&gt;&lt;p&gt;Minimum altitude: 8m&lt;/p&gt;&lt;p&gt;Maximum altitude: 664m&lt;/p&gt;&lt;p&gt;Ascent speed: 497.7m/h&lt;/p&gt;&lt;p&gt;Descent speed: -1145.4m/h&lt;/p&gt;&lt;p&gt;Elevation gain: 1043m&lt;/p&gt;&lt;p&gt;Elevation loss: -1096m&lt;/p&gt;&lt;p&gt;Ascent time: 02:05&lt;/p&gt;&lt;p&gt;Descent time: 00:57&lt;/p&gt;&lt;hr align="center" width="480" style="height: 2px; width: 517px"/&gt;</desc>
<type>Undefined</type>
<extensions>
<om:oruxmapsextensions>
<om:ext type="TYPE" subtype="0">0</om:ext>
</om:oruxmapsextensions>
</extensions>
<trkseg>
<trkpt lat="34.7788826" lon="32.4223243">
<ele>75.4</ele>
<time>2015-04-24T14:49:17Z</time>
</trkpt>
<trkpt lat="34.7789328" lon="32.4224950">
<ele>76.6</ele>
<time>2015-04-24T14:49:22Z</time>
</trkpt>
<trkpt lat="34.7787914" lon="32.4223399">
<ele>74.7</ele>
<time>2015-04-24T14:53:13Z</time>
</trkpt>
<trkpt lat="34.7778736" lon="32.4226882">
<ele>76.5</ele>
<time>2015-04-24T14:53:49Z</time>
</trkpt>
<trkpt lat="34.7776242" lon="32.4218669">
<ele>74.4</ele>
<time>2015-04-24T14:54:17Z</time>
</trkpt>
<trkpt lat="34.7776318" lon="32.4211899">
<ele>72.5</ele>
<time>2015-04-24T14:54:39Z</time>
</trkpt>
<trkpt lat="34.7772282" lon="32.4206442">
<ele>71.2</ele>
<time>2015-04-24T14:54:57Z</time>
</trkpt>
<trkpt lat="34.7783180" lon="32.4195519">
<ele>67.0</ele>
<time>2015-04-24T14:55:52Z</time>
</trkpt>
<trkpt lat="34.7788959" lon="32.4199052">
<ele>69.9</ele>
<time>2015-04-24T14:56:15Z</time>
</trkpt>
<trkpt lat="34.7796422" lon="32.4191764">
<ele>70.6</ele>
<time>2015-04-24T14:56:43Z</time>
</trkpt>
<trkpt lat="34.7799104" lon="32.4185425">
<ele>71.3</ele>
<time>2015-04-24T14:57:02Z</time>
</trkpt>
<trkpt lat="34.7811680" lon="32.4178090">
<ele>70.8</ele>
<time>2015-04-24T14:57:36Z</time>
</trkpt>
<trkpt lat="34.7815757" lon="32.4168153">
<ele>75.6</ele>
<time>2015-04-24T14:58:15Z</time>
</trkpt>
<trkpt lat="34.7813671" lon="32.4148137">
<ele>58.1</ele>
<time>2015-04-24T14:58:56Z</time>
</trkpt>
<trkpt lat="34.7819199" lon="32.4134208">
<ele>57.3</ele>
<time>2015-04-24T14:59:20Z</time>
</trkpt>
<trkpt lat="34.7817248" lon="32.4138016">
<ele>56.6</ele>
<time>2015-04-24T14:59:33Z</time>
</trkpt>
<trkpt lat="34.7811068" lon="32.4142766">
<ele>48.5</ele>
<time>2015-04-24T14:59:46Z</time>
</trkpt>
<trkpt lat="34.7808916" lon="32.4142777">
<ele>46.0</ele>
<time>2015-04-24T14:59:52Z</time>
</trkpt>
<trkpt lat="34.7808124" lon="32.4123514">
<ele>41.0</ele>
<time>2015-04-24T15:00:26Z</time>
</trkpt>
<trkpt lat="34.7805707" lon="32.4122443">
<ele>39.1</ele>
<time>2015-04-24T15:00:44Z</time>
</trkpt>
<trkpt lat="34.7801418" lon="32.4111700">
<ele>37.1</ele>
<time>2015-04-24T15:01:03Z</time>
</trkpt>
<trkpt lat="34.7792719" lon="32.4097736">
<ele>32.7</ele>
<time>2015-04-24T15:01:32Z</time>
</trkpt>
<trkpt lat="34.7786058" lon="32.4063796">
<ele>19.3</ele>
<time>2015-04-24T15:03:18Z</time>
</trkpt>
<trkpt lat="34.7802198" lon="32.4059693">
<ele>20.1</ele>
<time>2015-04-24T15:03:58Z</time>
</trkpt>
<trkpt lat="34.7803172" lon="32.4057396">
<ele>18.8</ele>
<time>2015-04-24T15:04:06Z</time>
</trkpt>
<trkpt lat="34.7805664" lon="32.4062738">
<ele>22.6</ele>
<time>2015-04-24T15:05:25Z</time>
</trkpt>
<trkpt lat="34.7809620" lon="32.4061857">
<ele>22.6</ele>
<time>2015-04-24T15:06:49Z</time>
</trkpt>
<trkpt lat="34.7805296" lon="32.4061312">
<ele>21.5</ele>
<time>2015-04-24T15:19:36Z</time>
</trkpt>
<trkpt lat="34.7804912" lon="32.4059669">
<ele>20.3</ele>
<time>2015-04-24T15:20:19Z</time>
</trkpt>
<trkpt lat="34.7812878" lon="32.4056932">
<ele>20.5</ele>
<time>2015-04-24T15:20:45Z</time>
</trkpt>
<trkpt lat="34.7827119" lon="32.4055385">
<ele>24.5</ele>
<time>2015-04-24T15:21:23Z</time>
</trkpt>
<trkpt lat="34.7845891" lon="32.4056384">
<ele>27.6</ele>
<time>2015-04-24T15:22:15Z</time>
</trkpt>
<trkpt lat="34.7848173" lon="32.4055027">
<ele>26.9</ele>
<time>2015-04-24T15:22:23Z</time>
</trkpt>
<trkpt lat="34.7849772" lon="32.4056452">
<ele>27.6</ele>
<time>2015-04-24T15:22:31Z</time>
</trkpt>
<trkpt lat="34.7862814" lon="32.4054059">
<ele>28.6</ele>
<time>2015-04-24T15:23:11Z</time>
</trkpt>
<trkpt lat="34.7872811" lon="32.4047652">
<ele>28.7</ele>
<time>2015-04-24T15:23:37Z</time>
</trkpt>
<trkpt lat="34.7896270" lon="32.4023011">
<ele>29.2</ele>
<time>2015-04-24T15:24:51Z</time>
</trkpt>
<trkpt lat="34.7906008" lon="32.4017436">
<ele>27.5</ele>
<time>2015-04-24T15:25:15Z</time>
</trkpt>
<trkpt lat="34.7918540" lon="32.4015603">
<ele>25.8</ele>
<time>2015-04-24T15:25:42Z</time>
</trkpt>
<trkpt lat="34.7942087" lon="32.4018262">
<ele>30.1</ele>
<time>2015-04-24T15:26:31Z</time>
</trkpt>
<trkpt lat="34.7967820" lon="32.4008659">
<ele>34.3</ele>
<time>2015-04-24T15:27:31Z</time>
</trkpt>
<trkpt lat="34.7983785" lon="32.4006022">
<ele>34.9</ele>
<time>2015-04-24T15:28:08Z</time>
</trkpt>
<trkpt lat="34.8000677" lon="32.3998762">
<ele>33.8</ele>
<time>2015-04-24T15:28:40Z</time>
</trkpt>
<trkpt lat="34.8043260" lon="32.3974380">
<ele>28.7</ele>
<time>2015-04-24T15:30:04Z</time>
</trkpt>
<trkpt lat="34.8058390" lon="32.3968902">
<ele>27.5</ele>
<time>2015-04-24T15:30:38Z</time>
</trkpt>
<trkpt lat="34.8077138" lon="32.3966878">
<ele>26.7</ele>
<time>2015-04-24T15:31:16Z</time>
</trkpt>
<trkpt lat="34.8099881" lon="32.3960400">
<ele>21.8</ele>
<time>2015-04-24T15:32:01Z</time>
</trkpt>
<trkpt lat="34.8127511" lon="32.3967343">
<ele>16.7</ele>
<time>2015-04-24T15:32:49Z</time>
</trkpt>
<trkpt lat="34.8134491" lon="32.3964319">
<ele>14.7</ele>
<time>2015-04-24T15:33:00Z</time>
</trkpt>
<trkpt lat="34.8144951" lon="32.3955756">
<ele>15.4</ele>
<time>2015-04-24T15:33:24Z</time>
</trkpt>
<trkpt lat="34.8158741" lon="32.3950442">
<ele>15.8</ele>
<time>2015-04-24T15:33:52Z</time>
</trkpt>
<trkpt lat="34.8190945" lon="32.3950877">
<ele>18.0</ele>
<time>2015-04-24T15:34:46Z</time>
</trkpt>
<trkpt lat="34.8199617" lon="32.3946706">
<ele>15.1</ele>
<time>2015-04-24T15:35:02Z</time>
</trkpt>
<trkpt lat="34.8222826" lon="32.3928026">
<ele>18.5</ele>
<time>2015-04-24T15:36:02Z</time>
</trkpt>
<trkpt lat="34.8231439" lon="32.3924240">
<ele>21.0</ele>
<time>2015-04-24T15:36:26Z</time>
</trkpt>
<trkpt lat="34.8288653" lon="32.3922299">
<ele>35.3</ele>
<time>2015-04-24T15:38:54Z</time>
</trkpt>
<trkpt lat="34.8318400" lon="32.3929282">
<ele>15.6</ele>
<time>2015-04-24T15:39:42Z</time>
</trkpt>
<trkpt lat="34.8325445" lon="32.3929104">
<ele>13.2</ele>
<time>2015-04-24T15:39:52Z</time>
</trkpt>
<trkpt lat="34.8332394" lon="32.3925792">
<ele>10.4</ele>
<time>2015-04-24T15:40:03Z</time>
</trkpt>
<trkpt lat="34.8355727" lon="32.3908714">
<ele>5.3</ele>
<time>2015-04-24T15:40:46Z</time>
</trkpt>
<trkpt lat="34.8377474" lon="32.3896484">
<ele>1.4</ele>
<time>2015-04-24T15:41:26Z</time>
</trkpt>
<trkpt lat="34.8408353" lon="32.3882875">
<ele>2.7</ele>
<time>2015-04-24T15:42:39Z</time>
</trkpt>
<trkpt lat="34.8462054" lon="32.3862518">
<ele>10.5</ele>
<time>2015-04-24T15:48:54Z</time>
</trkpt>
<trkpt lat="34.8493152" lon="32.3848319">
<ele>14.0</ele>
<time>2015-04-24T15:50:04Z</time>
</trkpt>
<trkpt lat="34.8509760" lon="32.3835349">
<ele>17.1</ele>
<time>2015-04-24T15:50:48Z</time>
</trkpt>
<trkpt lat="34.8534066" lon="32.3809182">
<ele>35.0</ele>
<time>2015-04-24T15:52:37Z</time>
</trkpt>
<trkpt lat="34.8551874" lon="32.3820887">
<ele>46.0</ele>
<time>2015-04-24T15:54:39Z</time>
</trkpt>
<trkpt lat="34.8572247" lon="32.3803533">
<ele>54.3</ele>
<time>2015-04-24T15:56:02Z</time>
</trkpt>
<trkpt lat="34.8571590" lon="32.3802497">
<ele>54.2</ele>
<time>2015-04-24T15:56:09Z</time>
</trkpt>
<trkpt lat="34.8572781" lon="32.3803421">
<ele>54.1</ele>
<time>2015-04-24T16:01:04Z</time>
</trkpt>
<trkpt lat="34.8589049" lon="32.3797276">
<ele>56.6</ele>
<time>2015-04-24T16:02:29Z</time>
</trkpt>
<trkpt lat="34.8605880" lon="32.3796509">
<ele>59.5</ele>
<time>2015-04-24T16:03:22Z</time>
</trkpt>
<trkpt lat="34.8623652" lon="32.3798791">
<ele>63.0</ele>
<time>2015-04-24T16:04:15Z</time>
</trkpt>
<trkpt lat="34.8633071" lon="32.3797180">
<ele>65.6</ele>
<time>2015-04-24T16:04:41Z</time>
</trkpt>
<trkpt lat="34.8654807" lon="32.3782505">
<ele>76.3</ele>
<time>2015-04-24T16:06:01Z</time>
</trkpt>
<trkpt lat="34.8668039" lon="32.3777341">
<ele>82.3</ele>
<time>2015-04-24T16:06:58Z</time>
</trkpt>
<trkpt lat="34.8694912" lon="32.3780600">
<ele>94.9</ele>
<time>2015-04-24T16:09:17Z</time>
</trkpt>
<trkpt lat="34.8704446" lon="32.3784306">
<ele>106.2</ele>
<time>2015-04-24T16:10:27Z</time>
</trkpt>
<trkpt lat="34.8719169" lon="32.3779431">
<ele>111.0</ele>
<time>2015-04-24T16:11:31Z</time>
</trkpt>
<trkpt lat="34.8726922" lon="32.3779794">
<ele>112.5</ele>
<time>2015-04-24T16:11:53Z</time>
</trkpt>
<trkpt lat="34.8741470" lon="32.3785510">
<ele>117.6</ele>
<time>2015-04-24T16:12:43Z</time>
</trkpt>
<trkpt lat="34.8760532" lon="32.3800798">
<ele>128.7</ele>
<time>2015-04-24T16:14:02Z</time>
</trkpt>
<trkpt lat="34.8766569" lon="32.3803930">
<ele>131.6</ele>
<time>2015-04-24T16:14:25Z</time>
</trkpt>
<trkpt lat="34.8788486" lon="32.3797713">
<ele>148.9</ele>
<time>2015-04-24T16:16:08Z</time>
</trkpt>
<trkpt lat="34.8820891" lon="32.3799671">
<ele>172.0</ele>
<time>2015-04-24T16:18:30Z</time>
</trkpt>
<trkpt lat="34.8827945" lon="32.3804837">
<ele>182.2</ele>
<time>2015-04-24T16:19:17Z</time>
</trkpt>
<trkpt lat="34.8839041" lon="32.3819164">
<ele>202.3</ele>
<time>2015-04-24T16:21:10Z</time>
</trkpt>
<trkpt lat="34.8842200" lon="32.3820491">
<ele>204.6</ele>
<time>2015-04-24T16:22:59Z</time>
</trkpt>
<trkpt lat="34.8845978" lon="32.3815113">
<ele>208.8</ele>
<time>2015-04-24T16:23:34Z</time>
</trkpt>
<trkpt lat="34.8843565" lon="32.3806567">
<ele>206.2</ele>
<time>2015-04-24T16:24:01Z</time>
</trkpt>
<trkpt lat="34.8843673" lon="32.3801701">
<ele>207.5</ele>
<time>2015-04-24T16:24:15Z</time>
</trkpt>
<trkpt lat="34.8857871" lon="32.3771749">
<ele>228.4</ele>
<time>2015-04-24T16:26:37Z</time>
</trkpt>
<trkpt lat="34.8860970" lon="32.3769135">
<ele>236.2</ele>
<time>2015-04-24T16:26:58Z</time>
</trkpt>
<trkpt lat="34.8863534" lon="32.3770387">
<ele>242.6</ele>
<time>2015-04-24T16:27:12Z</time>
</trkpt>
<trkpt lat="34.8861004" lon="32.3780310">
<ele>242.9</ele>
<time>2015-04-24T16:27:45Z</time>
</trkpt>
<trkpt lat="34.8863684" lon="32.3781965">
<ele>248.6</ele>
<time>2015-04-24T16:28:03Z</time>
</trkpt>
<trkpt lat="34.8877267" lon="32.3767891">
<ele>258.4</ele>
<time>2015-04-24T16:29:31Z</time>
</trkpt>
<trkpt lat="34.8878219" lon="32.3762547">
<ele>261.7</ele>
<time>2015-04-24T16:29:50Z</time>
</trkpt>
<trkpt lat="34.8877443" lon="32.3739144">
<ele>275.8</ele>
<time>2015-04-24T16:31:16Z</time>
</trkpt>
<trkpt lat="34.8879858" lon="32.3718973">
<ele>289.7</ele>
<time>2015-04-24T16:32:35Z</time>
</trkpt>
<trkpt lat="34.8884231" lon="32.3710932">
<ele>294.5</ele>
<time>2015-04-24T16:33:13Z</time>
</trkpt>
<trkpt lat="34.8897826" lon="32.3693650">
<ele>306.1</ele>
<time>2015-04-24T16:34:36Z</time>
</trkpt>
<trkpt lat="34.8907024" lon="32.3659456">
<ele>319.0</ele>
<time>2015-04-24T16:38:15Z</time>
</trkpt>
<trkpt lat="34.8911205" lon="32.3653160">
<ele>322.3</ele>
<time>2015-04-24T16:38:30Z</time>
</trkpt>
<trkpt lat="34.8915192" lon="32.3637455">
<ele>325.8</ele>
<time>2015-04-24T16:39:21Z</time>
</trkpt>
<trkpt lat="34.8921296" lon="32.3630242">
<ele>331.2</ele>
<time>2015-04-24T16:39:51Z</time>
</trkpt>
<trkpt lat="34.8930409" lon="32.3628868">
<ele>338.9</ele>
<time>2015-04-24T16:40:23Z</time>
</trkpt>
<trkpt lat="34.8938760" lon="32.3635371">
<ele>342.6</ele>
<time>2015-04-24T16:40:57Z</time>
</trkpt>
<trkpt lat="34.8953850" lon="32.3668036">
<ele>356.2</ele>
<time>2015-04-24T16:42:31Z</time>
</trkpt>
<trkpt lat="34.8979839" lon="32.3701252">
<ele>374.3</ele>
<time>2015-04-24T16:44:34Z</time>
</trkpt>
<trkpt lat="34.8983502" lon="32.3710537">
<ele>380.4</ele>
<time>2015-04-24T16:45:08Z</time>
</trkpt>
<trkpt lat="34.8982772" lon="32.3723184">
<ele>389.9</ele>
<time>2015-04-24T16:45:58Z</time>
</trkpt>
<trkpt lat="34.8966144" lon="32.3753419">
<ele>417.6</ele>
<time>2015-04-24T16:49:07Z</time>
</trkpt>
<trkpt lat="34.8949871" lon="32.3789895">
<ele>444.4</ele>
<time>2015-04-24T16:52:30Z</time>
</trkpt>
<trkpt lat="34.8947074" lon="32.3802097">
<ele>455.5</ele>
<time>2015-04-24T16:53:33Z</time>
</trkpt>
<trkpt lat="34.8947548" lon="32.3811630">
<ele>456.2</ele>
<time>2015-04-24T16:54:16Z</time>
</trkpt>
<trkpt lat="34.8960656" lon="32.3844364">
<ele>472.6</ele>
<time>2015-04-24T17:01:43Z</time>
</trkpt>
<trkpt lat="34.8963185" lon="32.3845443">
<ele>482.8</ele>
<time>2015-04-24T17:04:34Z</time>
</trkpt>
<trkpt lat="34.8975977" lon="32.3867183">
<ele>500.3</ele>
<time>2015-04-24T17:06:04Z</time>
</trkpt>
<trkpt lat="34.8998418" lon="32.3888686">
<ele>507.6</ele>
<time>2015-04-24T17:07:32Z</time>
</trkpt>
<trkpt lat="34.9016280" lon="32.3916538">
<ele>521.0</ele>
<time>2015-04-24T17:09:15Z</time>
</trkpt>
<trkpt lat="34.9026632" lon="32.3957453">
<ele>534.2</ele>
<time>2015-04-24T17:11:30Z</time>
</trkpt>
<trkpt lat="34.9030446" lon="32.3959888">
<ele>534.1</ele>
<time>2015-04-24T17:11:44Z</time>
</trkpt>
<trkpt lat="34.9040091" lon="32.3959061">
<ele>529.9</ele>
<time>2015-04-24T17:17:24Z</time>
</trkpt>
<trkpt lat="34.9046845" lon="32.3966008">
<ele>525.9</ele>
<time>2015-04-24T17:17:44Z</time>
</trkpt>
<trkpt lat="34.9047510" lon="32.3968708">
<ele>523.7</ele>
<time>2015-04-24T17:17:50Z</time>
</trkpt>
<trkpt lat="34.9045774" lon="32.3977680">
<ele>517.2</ele>
<time>2015-04-24T17:18:01Z</time>
</trkpt>
<trkpt lat="34.9034212" lon="32.3996774">
<ele>503.7</ele>
<time>2015-04-24T17:18:23Z</time>
</trkpt>
<trkpt lat="34.9032144" lon="32.4002525">
<ele>498.8</ele>
<time>2015-04-24T17:18:28Z</time>
</trkpt>
<trkpt lat="34.9027831" lon="32.4028645">
<ele>502.5</ele>
<time>2015-04-24T17:19:05Z</time>
</trkpt>
<trkpt lat="34.9027056" lon="32.4038414">
<ele>502.7</ele>
<time>2015-04-24T17:19:31Z</time>
</trkpt>
<trkpt lat="34.9030203" lon="32.4078359">
<ele>522.2</ele>
<time>2015-04-24T17:21:35Z</time>
</trkpt>
<trkpt lat="34.9033269" lon="32.4081889">
<ele>523.2</ele>
<time>2015-04-24T17:21:56Z</time>
</trkpt>
<trkpt lat="34.9038355" lon="32.4081000">
<ele>526.1</ele>
<time>2015-04-24T17:22:23Z</time>
</trkpt>
<trkpt lat="34.9040306" lon="32.4076406">
<ele>527.2</ele>
<time>2015-04-24T17:22:44Z</time>
</trkpt>
<trkpt lat="34.9042631" lon="32.4059910">
<ele>536.3</ele>
<time>2015-04-24T17:23:59Z</time>
</trkpt>
<trkpt lat="34.9045236" lon="32.4057389">
<ele>544.7</ele>
<time>2015-04-24T17:24:17Z</time>
</trkpt>
<trkpt lat="34.9047751" lon="32.4058483">
<ele>549.8</ele>
<time>2015-04-24T17:24:32Z</time>
</trkpt>
<trkpt lat="34.9050130" lon="32.4083016">
<ele>558.9</ele>
<time>2015-04-24T17:26:09Z</time>
</trkpt>
<trkpt lat="34.9059753" lon="32.4098810">
<ele>565.1</ele>
<time>2015-04-24T17:27:19Z</time>
</trkpt>
<trkpt lat="34.9061752" lon="32.4133555">
<ele>580.9</ele>
<time>2015-04-24T17:30:21Z</time>
</trkpt>
<trkpt lat="34.9059406" lon="32.4151506">
<ele>590.0</ele>
<time>2015-04-24T17:31:33Z</time>
</trkpt>
<trkpt lat="34.9063596" lon="32.4171880">
<ele>598.5</ele>
<time>2015-04-24T17:33:09Z</time>
</trkpt>
<trkpt lat="34.9067098" lon="32.4179314">
<ele>604.7</ele>
<time>2015-04-24T17:33:40Z</time>
</trkpt>
<trkpt lat="34.9085654" lon="32.4201061">
<ele>618.2</ele>
<time>2015-04-24T17:35:26Z</time>
</trkpt>
<trkpt lat="34.9093626" lon="32.4214224">
<ele>625.7</ele>
<time>2015-04-24T17:36:36Z</time>
</trkpt>
<trkpt lat="34.9098008" lon="32.4215965">
<ele>626.8</ele>
<time>2015-04-24T17:36:56Z</time>
</trkpt>
<trkpt lat="34.9106946" lon="32.4215889">
<ele>634.1</ele>
<time>2015-04-24T17:37:49Z</time>
</trkpt>
<trkpt lat="34.9144058" lon="32.4212715">
<ele>647.9</ele>
<time>2015-04-24T17:40:05Z</time>
</trkpt>
<trkpt lat="34.9157852" lon="32.4204506">
<ele>650.7</ele>
<time>2015-04-24T17:40:53Z</time>
</trkpt>
<trkpt lat="34.9166962" lon="32.4201846">
<ele>653.4</ele>
<time>2015-04-24T17:41:22Z</time>
</trkpt>
<trkpt lat="34.9180515" lon="32.4202149">
<ele>653.4</ele>
<time>2015-04-24T17:42:07Z</time>
</trkpt>
<trkpt lat="34.9200648" lon="32.4209575">
<ele>652.8</ele>
<time>2015-04-24T17:42:50Z</time>
</trkpt>
<trkpt lat="34.9226541" lon="32.4203427">
<ele>647.2</ele>
<time>2015-04-24T17:43:35Z</time>
</trkpt>
<trkpt lat="34.9246050" lon="32.4195054">
<ele>643.6</ele>
<time>2015-04-24T17:44:07Z</time>
</trkpt>
<trkpt lat="34.9261500" lon="32.4182282">
<ele>638.0</ele>
<time>2015-04-24T17:44:32Z</time>
</trkpt>
<trkpt lat="34.9290730" lon="32.4174169">
<ele>633.2</ele>
<time>2015-04-24T17:45:12Z</time>
</trkpt>
<trkpt lat="34.9307813" lon="32.4164335">
<ele>628.5</ele>
<time>2015-04-24T17:52:51Z</time>
</trkpt>
<trkpt lat="34.9340242" lon="32.4160252">
<ele>633.0</ele>
<time>2015-04-24T17:53:49Z</time>
</trkpt>
<trkpt lat="34.9345245" lon="32.4153652">
<ele>628.0</ele>
<time>2015-04-24T17:54:03Z</time>
</trkpt>
<trkpt lat="34.9351175" lon="32.4132523">
<ele>619.4</ele>
<time>2015-04-24T17:54:29Z</time>
</trkpt>
<trkpt lat="34.9354951" lon="32.4127831">
<ele>618.1</ele>
<time>2015-04-24T17:54:36Z</time>
</trkpt>
<trkpt lat="34.9414026" lon="32.4105166">
<ele>593.3</ele>
<time>2015-04-24T17:55:49Z</time>
</trkpt>
<trkpt lat="34.9423852" lon="32.4106956">
<ele>589.7</ele>
<time>2015-04-24T17:56:00Z</time>
</trkpt>
<trkpt lat="34.9438378" lon="32.4119309">
<ele>586.8</ele>
<time>2015-04-24T17:56:20Z</time>
</trkpt>
<trkpt lat="34.9445316" lon="32.4122373">
<ele>585.6</ele>
<time>2015-04-24T17:56:29Z</time>
</trkpt>
<trkpt lat="34.9450952" lon="32.4122791">
<ele>589.1</ele>
<time>2015-04-24T17:56:37Z</time>
</trkpt>
<trkpt lat="34.9468195" lon="32.4117563">
<ele>594.7</ele>
<time>2015-04-24T17:57:18Z</time>
</trkpt>
<trkpt lat="34.9481236" lon="32.4116160">
<ele>596.7</ele>
<time>2015-04-24T17:57:50Z</time>
</trkpt>
<trkpt lat="34.9493303" lon="32.4106827">
<ele>590.7</ele>
<time>2015-04-24T17:58:14Z</time>
</trkpt>
<trkpt lat="34.9520272" lon="32.4104987">
<ele>589.5</ele>
<time>2015-04-24T17:58:52Z</time>
</trkpt>
<trkpt lat="34.9535602" lon="32.4106764">
<ele>585.8</ele>
<time>2015-04-24T17:59:14Z</time>
</trkpt>
<trkpt lat="34.9546266" lon="32.4109151">
<ele>578.7</ele>
<time>2015-04-24T17:59:27Z</time>
</trkpt>
<trkpt lat="34.9560103" lon="32.4117290">
<ele>572.5</ele>
<time>2015-04-24T17:59:44Z</time>
</trkpt>
<trkpt lat="34.9578961" lon="32.4121634">
<ele>566.4</ele>
<time>2015-04-24T18:00:04Z</time>
</trkpt>
<trkpt lat="34.9604644" lon="32.4136883">
<ele>547.3</ele>
<time>2015-04-24T18:01:01Z</time>
</trkpt>
<trkpt lat="34.9623656" lon="32.4143582">
<ele>531.0</ele>
<time>2015-04-24T18:01:19Z</time>
</trkpt>
<trkpt lat="34.9674165" lon="32.4111418">
<ele>512.6</ele>
<time>2015-04-24T18:02:20Z</time>
</trkpt>
<trkpt lat="34.9677912" lon="32.4101465">
<ele>506.8</ele>
<time>2015-04-24T18:02:31Z</time>
</trkpt>
<trkpt lat="34.9674576" lon="32.4083054">
<ele>493.9</ele>
<time>2015-04-24T18:02:49Z</time>
</trkpt>
<trkpt lat="34.9677169" lon="32.4073482">
<ele>489.8</ele>
<time>2015-04-24T18:02:57Z</time>
</trkpt>
<trkpt lat="34.9687031" lon="32.4065557">
<ele>478.6</ele>
<time>2015-04-24T18:03:09Z</time>
</trkpt>
<trkpt lat="34.9693828" lon="32.4066166">
<ele>473.3</ele>
<time>2015-04-24T18:03:16Z</time>
</trkpt>
<trkpt lat="34.9698708" lon="32.4064675">
<ele>471.2</ele>
<time>2015-04-24T18:03:21Z</time>
</trkpt>
<trkpt lat="34.9707851" lon="32.4051306">
<ele>459.8</ele>
<time>2015-04-24T18:03:35Z</time>
</trkpt>
<trkpt lat="34.9711765" lon="32.4049131">
<ele>454.6</ele>
<time>2015-04-24T18:03:41Z</time>
</trkpt>
<trkpt lat="34.9735547" lon="32.4058864">
<ele>435.1</ele>
<time>2015-04-24T18:04:09Z</time>
</trkpt>
<trkpt lat="34.9750556" lon="32.4051867">
<ele>423.6</ele>
<time>2015-04-24T18:04:23Z</time>
</trkpt>
<trkpt lat="34.9761120" lon="32.4053098">
<ele>413.4</ele>
<time>2015-04-24T18:04:32Z</time>
</trkpt>
<trkpt lat="34.9775055" lon="32.4046401">
<ele>397.9</ele>
<time>2015-04-24T18:04:45Z</time>
</trkpt>
<trkpt lat="34.9782346" lon="32.4050093">
<ele>389.6</ele>
<time>2015-04-24T18:04:52Z</time>
</trkpt>
<trkpt lat="34.9828292" lon="32.4059523">
<ele>383.4</ele>
<time>2015-04-24T18:05:39Z</time>
</trkpt>
<trkpt lat="34.9868611" lon="32.4062180">
<ele>358.9</ele>
<time>2015-04-24T18:06:20Z</time>
</trkpt>
<trkpt lat="34.9887539" lon="32.4056984">
<ele>342.0</ele>
<time>2015-04-24T18:06:38Z</time>
</trkpt>
<trkpt lat="34.9907610" lon="32.4061346">
<ele>333.7</ele>
<time>2015-04-24T18:06:57Z</time>
</trkpt>
<trkpt lat="34.9912773" lon="32.4059584">
<ele>329.6</ele>
<time>2015-04-24T18:07:03Z</time>
</trkpt>
<trkpt lat="34.9923354" lon="32.4048145">
<ele>320.1</ele>
<time>2015-04-24T18:07:17Z</time>
</trkpt>
<trkpt lat="34.9931147" lon="32.4044761">
<ele>315.5</ele>
<time>2015-04-24T18:07:24Z</time>
</trkpt>
<trkpt lat="34.9942290" lon="32.4044545">
<ele>308.4</ele>
<time>2015-04-24T18:07:35Z</time>
</trkpt>
<trkpt lat="34.9969281" lon="32.4048993">
<ele>282.3</ele>
<time>2015-04-24T18:07:56Z</time>
</trkpt>
<trkpt lat="34.9991654" lon="32.4042523">
<ele>255.1</ele>
<time>2015-04-24T18:08:17Z</time>
</trkpt>
<trkpt lat="35.0000647" lon="32.4042172">
<ele>247.4</ele>
<time>2015-04-24T18:08:25Z</time>
</trkpt>
<trkpt lat="35.0019117" lon="32.4047764">
<ele>231.0</ele>
<time>2015-04-24T18:08:44Z</time>
</trkpt>
<trkpt lat="35.0025590" lon="32.4046661">
<ele>232.8</ele>
<time>2015-04-24T18:08:50Z</time>
</trkpt>
<trkpt lat="35.0043172" lon="32.4037734">
<ele>208.7</ele>
<time>2015-04-24T18:09:06Z</time>
</trkpt>
<trkpt lat="35.0049387" lon="32.4036651">
<ele>204.1</ele>
<time>2015-04-24T18:09:11Z</time>
</trkpt>
<trkpt lat="35.0069573" lon="32.4042484">
<ele>184.4</ele>
<time>2015-04-24T18:09:26Z</time>
</trkpt>
<trkpt lat="35.0094421" lon="32.4041302">
<ele>172.3</ele>
<time>2015-04-24T18:09:46Z</time>
</trkpt>
<trkpt lat="35.0135290" lon="32.4050157">
<ele>133.6</ele>
<time>2015-04-24T18:10:22Z</time>
</trkpt>
<trkpt lat="35.0143567" lon="32.4058342">
<ele>128.5</ele>
<time>2015-04-24T18:10:33Z</time>
</trkpt>
<trkpt lat="35.0153570" lon="32.4088240">
<ele>105.0</ele>
<time>2015-04-24T18:11:01Z</time>
</trkpt>
<trkpt lat="35.0157768" lon="32.4096062">
<ele>100.1</ele>
<time>2015-04-24T18:11:08Z</time>
</trkpt>
<trkpt lat="35.0163232" lon="32.4099643">
<ele>96.5</ele>
<time>2015-04-24T18:11:14Z</time>
</trkpt>
<trkpt lat="35.0175443" lon="32.4102004">
<ele>97.2</ele>
<time>2015-04-24T18:11:28Z</time>
</trkpt>
<trkpt lat="35.0181240" lon="32.4105840">
<ele>93.4</ele>
<time>2015-04-24T18:11:38Z</time>
</trkpt>
<trkpt lat="35.0197372" lon="32.4128331">
<ele>88.9</ele>
<time>2015-04-24T18:12:14Z</time>
</trkpt>
<trkpt lat="35.0203940" lon="32.4133748">
<ele>83.7</ele>
<time>2015-04-24T18:12:24Z</time>
</trkpt>
<trkpt lat="35.0229249" lon="32.4147228">
<ele>71.7</ele>
<time>2015-04-24T18:13:00Z</time>
</trkpt>
<trkpt lat="35.0237095" lon="32.4149450">
<ele>65.4</ele>
<time>2015-04-24T18:13:09Z</time>
</trkpt>
<trkpt lat="35.0283170" lon="32.4141057">
<ele>45.7</ele>
<time>2015-04-24T18:14:02Z</time>
</trkpt>
<trkpt lat="35.0257624" lon="32.4146958">
<ele>53.6</ele>
<time>2015-04-24T18:16:35Z</time>
</trkpt>
<trkpt lat="35.0265137" lon="32.4169558">
<ele>49.1</ele>
<time>2015-04-24T18:17:36Z</time>
</trkpt>
<trkpt lat="35.0267053" lon="32.4172249">
<ele>45.0</ele>
<time>2015-04-24T18:17:44Z</time>
</trkpt>
<trkpt lat="35.0273939" lon="32.4175929">
<ele>37.0</ele>
<time>2015-04-24T18:17:55Z</time>
</trkpt>
<trkpt lat="35.0281092" lon="32.4184653">
<ele>28.7</ele>
<time>2015-04-24T18:18:12Z</time>
</trkpt>
<trkpt lat="35.0284575" lon="32.4183421">
<ele>28.8</ele>
<time>2015-04-24T18:18:21Z</time>
</trkpt>
<trkpt lat="35.0287666" lon="32.4179710">
<ele>28.1</ele>
<time>2015-04-24T18:18:30Z</time>
</trkpt>
<trkpt lat="35.0289270" lon="32.4180124">
<ele>24.1</ele>
<time>2015-04-24T18:18:35Z</time>
</trkpt>
<trkpt lat="35.0294527" lon="32.4191928">
<ele>20.9</ele>
<time>2015-04-24T18:19:01Z</time>
</trkpt>
<trkpt lat="35.0302059" lon="32.4200334">
<ele>21.0</ele>
<time>2015-04-24T18:19:32Z</time>
</trkpt>
<trkpt lat="35.0300891" lon="32.4200918">
<ele>21.4</ele>
<time>2015-04-24T18:20:54Z</time>
</trkpt>
<trkpt lat="35.0306148" lon="32.4211193">
<ele>19.9</ele>
<time>2015-04-24T18:34:54Z</time>
</trkpt>
<trkpt lat="35.0310298" lon="32.4225549">
<ele>19.6</ele>
<time>2015-04-24T18:35:27Z</time>
</trkpt>
<trkpt lat="35.0330011" lon="32.4252088">
<ele>22.1</ele>
<time>2015-04-24T18:36:52Z</time>
</trkpt>
<trkpt lat="35.0336801" lon="32.4255980">
<ele>30.9</ele>
<time>2015-04-24T18:37:30Z</time>
</trkpt>
<trkpt lat="35.0326984" lon="32.4270199">
<ele>38.9</ele>
<time>2015-04-24T18:38:53Z</time>
</trkpt>
<trkpt lat="35.0330620" lon="32.4272099">
<ele>37.8</ele>
<time>2015-04-24T18:39:04Z</time>
</trkpt>
<trkpt lat="35.0340561" lon="32.4272202">
<ele>34.6</ele>
<time>2015-04-24T18:39:25Z</time>
</trkpt>
<trkpt lat="35.0357044" lon="32.4282971">
<ele>28.7</ele>
<time>2015-04-24T18:39:58Z</time>
</trkpt>
<trkpt lat="35.0373670" lon="32.4326051">
<ele>21.2</ele>
<time>2015-04-24T18:41:09Z</time>
</trkpt>
<trkpt lat="35.0385783" lon="32.4344779">
<ele>24.8</ele>
<time>2015-04-24T18:42:11Z</time>
</trkpt>
<trkpt lat="35.0390360" lon="32.4357882">
<ele>25.4</ele>
<time>2015-04-24T18:42:40Z</time>
</trkpt>
<trkpt lat="35.0397548" lon="32.4367318">
<ele>28.5</ele>
<time>2015-04-24T18:43:08Z</time>
</trkpt>
<trkpt lat="35.0413429" lon="32.4395924">
<ele>27.7</ele>
<time>2015-04-24T18:44:10Z</time>
</trkpt>
<trkpt lat="35.0419693" lon="32.4402642">
<ele>25.8</ele>
<time>2015-04-24T18:44:23Z</time>
</trkpt>
<trkpt lat="35.0426628" lon="32.4406165">
<ele>24.3</ele>
<time>2015-04-24T18:44:33Z</time>
</trkpt>
<trkpt lat="35.0459878" lon="32.4409759">
<ele>14.1</ele>
<time>2015-04-24T18:45:17Z</time>
</trkpt>
<trkpt lat="35.0468263" lon="32.4413283">
<ele>13.9</ele>
<time>2015-04-24T18:45:28Z</time>
</trkpt>
<trkpt lat="35.0474180" lon="32.4418400">
<ele>8.9</ele>
<time>2015-04-24T18:45:37Z</time>
</trkpt>
<trkpt lat="35.0507996" lon="32.4471144">
<ele>8.2</ele>
<time>2015-04-24T18:47:01Z</time>
</trkpt>
<trkpt lat="35.0541776" lon="32.4539134">
<ele>11.2</ele>
<time>2015-04-24T18:48:57Z</time>
</trkpt>
<trkpt lat="35.0548530" lon="32.4545294">
<ele>12.2</ele>
<time>2015-04-24T18:49:12Z</time>
</trkpt>
<trkpt lat="35.0569523" lon="32.4548541">
<ele>6.1</ele>
<time>2015-04-24T18:49:44Z</time>
</trkpt>
<trkpt lat="35.0574452" lon="32.4551747">
<ele>4.9</ele>
<time>2015-04-24T18:49:52Z</time>
</trkpt>
<trkpt lat="35.0588514" lon="32.4575912">
<ele>4.0</ele>
<time>2015-04-24T18:50:42Z</time>
</trkpt>
<trkpt lat="35.0601121" lon="32.4593277">
<ele>8.3</ele>
<time>2015-04-24T18:51:24Z</time>
</trkpt>
<trkpt lat="35.0609770" lon="32.4612659">
<ele>5.3</ele>
<time>2015-04-24T18:52:01Z</time>
</trkpt>
<trkpt lat="35.0630512" lon="32.4641498">
<ele>5.0</ele>
<time>2015-04-24T18:53:01Z</time>
</trkpt>
<trkpt lat="35.0647874" lon="32.4661866">
<ele>6.6</ele>
<time>2015-04-24T18:53:51Z</time>
</trkpt>
<trkpt lat="35.0665159" lon="32.4692663">
<ele>6.5</ele>
<time>2015-04-24T18:54:57Z</time>
</trkpt>
<trkpt lat="35.0675180" lon="32.4703639">
<ele>8.2</ele>
<time>2015-04-24T18:55:30Z</time>
</trkpt>
<trkpt lat="35.0700238" lon="32.4738061">
<ele>3.7</ele>
<time>2015-04-24T18:56:43Z</time>
</trkpt>
<trkpt lat="35.0767337" lon="32.4817264">
<ele>5.4</ele>
<time>2015-04-24T19:00:19Z</time>
</trkpt>
<trkpt lat="35.0774910" lon="32.4821530">
<ele>3.7</ele>
<time>2015-04-24T19:00:35Z</time>
</trkpt>
<trkpt lat="35.0801095" lon="32.4850373">
<ele>4.0</ele>
<time>2015-04-24T19:01:44Z</time>
</trkpt>
<trkpt lat="35.0823852" lon="32.4871210">
<ele>3.3</ele>
<time>2015-04-24T19:02:38Z</time>
</trkpt>
<trkpt lat="35.0847066" lon="32.4889891">
<ele>4.5</ele>
<time>2015-04-24T19:03:34Z</time>
</trkpt>
<trkpt lat="35.0865334" lon="32.4907224">
<ele>2.8</ele>
<time>2015-04-24T19:04:16Z</time>
</trkpt>
<trkpt lat="35.0887020" lon="32.4923163">
<ele>4.1</ele>
<time>2015-04-24T19:05:02Z</time>
</trkpt>
<trkpt lat="35.0938613" lon="32.4969118">
<ele>4.8</ele>
<time>2015-04-24T19:07:08Z</time>
</trkpt>
<trkpt lat="35.0965949" lon="32.4985434">
<ele>5.0</ele>
<time>2015-04-24T19:08:03Z</time>
</trkpt>
<trkpt lat="35.1039891" lon="32.5036170">
<ele>5.5</ele>
<time>2015-04-24T19:11:02Z</time>
</trkpt>
<trkpt lat="35.1060382" lon="32.5043325">
<ele>4.2</ele>
<time>2015-04-24T19:11:47Z</time>
</trkpt>
<trkpt lat="35.1105868" lon="32.5074473">
<ele>6.4</ele>
<time>2015-04-24T19:13:54Z</time>
</trkpt>
<trkpt lat="35.1108388" lon="32.5077153">
<ele>7.4</ele>
<time>2015-04-24T19:14:22Z</time>
</trkpt>
<trkpt lat="35.1108164" lon="32.5078915">
<ele>5.8</ele>
<time>2015-04-24T19:14:41Z</time>
</trkpt>
</trkseg>
</trk>
</gpx>